sensor_id;sensor_type;location;lat;lon;timestamp;temperature;humidity
51765;DHT22;37835;53.256;6.456;2023-01-23T00:02:14;2.40;99.90
51765;DHT22;37835;53.256;6.456;2023-01-23T00:04:39;2.50;99.90
51765;DHT22;37835;53.256;6.456;2023-01-23T00:07:05;2.50;99.90
51765;DHT22;37835;53.256;6.456;2023-01-23T00:09:30;2.40;99.90
51765;DHT22;37835;53.256;6.456;2023-01-23T00:11:56;2.50;99.90
51765;DHT22;37835;53.256;6.456;2023-01-23T00:14:21;2.50;99.90
51765;DHT22;37835;53.256;6.456;2023-01-23T00:16:47;4.40;99.90
51765;DHT22;37835;53.256;6.456;2023-01-23T00:19:12;2.40;99.90
51765;DHT22;37835;53.256;6.456;2023-01-23T00:21:38;2.50;99.90
51765;DHT22;37835;53.256;6.456;2023-01-23T00:24:04;2.40;99.90
51765;DHT22;37835;53.256;6.456;2023-01-23T00:26:30;2.40;99.90
51765;DHT22;37835;53.256;6.456;2023-01-23T00:28:57;2.40;99.90
51765;DHT22;37835;53.256;6.456;2023-01-23T00:31:27;2.50;99.90
51765;DHT22;37835;53.256;6.456;2023-01-23T00:33:54;2.40;99.90
51765;DHT22;37835;53.256;6.456;2023-01-23T00:36:20;2.40;99.90
51765;DHT22;37835;53.256;6.456;2023-01-23T00:38:45;2.40;99.90
51765;DHT22;37835;53.256;6.456;2023-01-23T00:41:10;2.40;99.90
51765;DHT22;37835;53.256;6.456;2023-01-23T00:43:37;2.40;99.90
51765;DHT22;37835;53.256;6.456;2023-01-23T00:46:02;2.40;99.90
51765;DHT22;37835;53.256;6.456;2023-01-23T00:48:28;2.40;99.90
51765;DHT22;37835;53.256;6.456;2023-01-23T00:50:53;2.40;99.90
51765;DHT22;37835;53.256;6.456;2023-01-23T00:53:19;2.40;99.90
51765;DHT22;37835;53.256;6.456;2023-01-23T00:55:44;2.40;99.90
51765;DHT22;37835;53.256;6.456;2023-01-23T00:58:10;2.40;99.90
51765;DHT22;37835;53.256;6.456;2023-01-23T01:00:36;2.40;99.90
51765;DHT22;37835;53.256;6.456;2023-01-23T01:03:02;2.40;99.90
51765;DHT22;37835;53.256;6.456;2023-01-23T01:05:27;2.40;99.90
51765;DHT22;37835;53.256;6.456;2023-01-23T01:07:53;2.40;99.90
51765;DHT22;37835;53.256;6.456;2023-01-23T01:10:18;2.40;99.90
51765;DHT22;37835;53.256;6.456;2023-01-23T01:12:44;2.40;99.90
51765;DHT22;37835;53.256;6.456;2023-01-23T01:15:10;2.40;99.90
51765;DHT22;37835;53.256;6.456;2023-01-23T01:17:37;2.40;99.90
51765;DHT22;37835;53.256;6.456;2023-01-23T01:20:03;2.40;99.90
51765;DHT22;37835;53.256;6.456;2023-01-23T01:22:29;2.40;99.90
51765;DHT22;37835;53.256;6.456;2023-01-23T01:24:55;2.40;99.90
51765;DHT22;37835;53.256;6.456;2023-01-23T01:27:22;2.40;99.90
51765;DHT22;37835;53.256;6.456;2023-01-23T01:29:47;2.40;99.90
51765;DHT22;37835;53.256;6.456;2023-01-23T01:32:13;2.40;99.90
51765;DHT22;37835;53.256;6.456;2023-01-23T01:34:38;2.40;99.90
51765;DHT22;37835;53.256;6.456;2023-01-23T01:37:04;2.40;99.90
51765;DHT22;37835;53.256;6.456;2023-01-23T01:39:29;2.40;99.90
51765;DHT22;37835;53.256;6.456;2023-01-23T01:41:55;2.40;99.90
51765;DHT22;37835;53.256;6.456;2023-01-23T01:44:21;2.70;99.90
51765;DHT22;37835;53.256;6.456;2023-01-23T01:46:47;2.40;99.90
51765;DHT22;37835;53.256;6.456;2023-01-23T01:51:47;2.40;99.90
51765;DHT22;37835;53.256;6.456;2023-01-23T01:54:17;2.40;99.90
51765;DHT22;37835;53.256;6.456;2023-01-23T01:56:51;2.40;99.90
51765;DHT22;37835;53.256;6.456;2023-01-23T01:59:18;2.40;99.90
51765;DHT22;37835;53.256;6.456;2023-01-23T02:01:46;2.40;99.90
51765;DHT22;37835;53.256;6.456;2023-01-23T02:04:12;2.40;99.90
51765;DHT22;37835;53.256;6.456;2023-01-23T02:06:39;2.40;99.90
51765;DHT22;37835;53.256;6.456;2023-01-23T02:11:37;2.40;99.90
51765;DHT22;37835;53.256;6.456;2023-01-23T02:14:02;2.30;99.90
51765;DHT22;37835;53.256;6.456;2023-01-23T02:16:29;2.30;99.90
51765;DHT22;37835;53.256;6.456;2023-01-23T02:18:59;2.30;99.90
51765;DHT22;37835;53.256;6.456;2023-01-23T02:21:26;2.30;99.90
51765;DHT22;37835;53.256;6.456;2023-01-23T02:26:29;2.30;99.90
51765;DHT22;37835;53.256;6.456;2023-01-23T02:28:57;2.30;99.90
51765;DHT22;37835;53.256;6.456;2023-01-23T02:31:23;2.30;99.90
51765;DHT22;37835;53.256;6.456;2023-01-23T02:33:56;2.30;99.90
51765;DHT22;37835;53.256;6.456;2023-01-23T02:36:24;2.30;99.90
51765;DHT22;37835;53.256;6.456;2023-01-23T02:41:38;2.30;99.90
51765;DHT22;37835;53.256;6.456;2023-01-23T02:44:17;2.30;99.90
51765;DHT22;37835;53.256;6.456;2023-01-23T02:46:45;2.30;99.90
51765;DHT22;37835;53.256;6.456;2023-01-23T02:49:10;2.30;99.90
51765;DHT22;37835;53.256;6.456;2023-01-23T02:51:36;2.30;99.90
51765;DHT22;37835;53.256;6.456;2023-01-23T02:54:01;2.20;99.90
51765;DHT22;37835;53.256;6.456;2023-01-23T02:56:27;2.20;99.90
51765;DHT22;37835;53.256;6.456;2023-01-23T02:58:52;2.20;99.90
51765;DHT22;37835;53.256;6.456;2023-01-23T03:01:37;2.20;99.90
51765;DHT22;37835;53.256;6.456;2023-01-23T03:04:03;2.20;99.90
51765;DHT22;37835;53.256;6.456;2023-01-23T03:06:34;2.20;99.90
51765;DHT22;37835;53.256;6.456;2023-01-23T03:09:09;2.20;99.90
51765;DHT22;37835;53.256;6.456;2023-01-23T03:11:36;2.20;99.90
51765;DHT22;37835;53.256;6.456;2023-01-23T03:14:02;2.20;99.90
51765;DHT22;37835;53.256;6.456;2023-01-23T03:16:27;2.20;99.90
51765;DHT22;37835;53.256;6.456;2023-01-23T03:18:54;2.20;99.90
51765;DHT22;37835;53.256;6.456;2023-01-23T03:21:21;2.20;99.90
51765;DHT22;37835;53.256;6.456;2023-01-23T03:23:47;2.20;99.90
51765;DHT22;37835;53.256;6.456;2023-01-23T03:26:12;2.20;99.90
51765;DHT22;37835;53.256;6.456;2023-01-23T03:28:38;2.20;99.90
51765;DHT22;37835;53.256;6.456;2023-01-23T03:31:22;2.20;99.90
51765;DHT22;37835;53.256;6.456;2023-01-23T03:33:48;2.20;99.90
51765;DHT22;37835;53.256;6.456;2023-01-23T03:36:13;2.20;99.90
51765;DHT22;37835;53.256;6.456;2023-01-23T03:38:39;2.20;99.90
51765;DHT22;37835;53.256;6.456;2023-01-23T03:41:25;2.20;99.90
51765;DHT22;37835;53.256;6.456;2023-01-23T03:43:50;2.20;99.90
51765;DHT22;37835;53.256;6.456;2023-01-23T03:46:16;2.20;99.90
51765;DHT22;37835;53.256;6.456;2023-01-23T03:48:41;2.20;99.90
51765;DHT22;37835;53.256;6.456;2023-01-23T03:51:07;2.20;99.90
51765;DHT22;37835;53.256;6.456;2023-01-23T03:53:32;2.20;99.90
51765;DHT22;37835;53.256;6.456;2023-01-23T03:55:58;2.20;99.90
51765;DHT22;37835;53.256;6.456;2023-01-23T03:58:23;2.20;99.90
51765;DHT22;37835;53.256;6.456;2023-01-23T04:00:49;2.20;99.90
51765;DHT22;37835;53.256;6.456;2023-01-23T04:03:14;2.20;99.90
51765;DHT22;37835;53.256;6.456;2023-01-23T04:05:40;2.20;99.90
51765;DHT22;37835;53.256;6.456;2023-01-23T04:08:05;2.20;99.90
51765;DHT22;37835;53.256;6.456;2023-01-23T04:10:31;2.20;99.90
51765;DHT22;37835;53.256;6.456;2023-01-23T04:12:56;2.20;99.90
51765;DHT22;37835;53.256;6.456;2023-01-23T04:15:22;2.20;99.90
51765;DHT22;37835;53.256;6.456;2023-01-23T04:17:47;2.20;99.90
51765;DHT22;37835;53.256;6.456;2023-01-23T04:20:13;2.20;99.90
51765;DHT22;37835;53.256;6.456;2023-01-23T04:22:39;2.20;99.90
51765;DHT22;37835;53.256;6.456;2023-01-23T04:25:04;2.20;99.90
51765;DHT22;37835;53.256;6.456;2023-01-23T04:27:30;2.20;99.90
51765;DHT22;37835;53.256;6.456;2023-01-23T04:29:56;2.20;99.90
51765;DHT22;37835;53.256;6.456;2023-01-23T04:32:22;2.20;99.90
51765;DHT22;37835;53.256;6.456;2023-01-23T04:34:48;2.20;99.90
51765;DHT22;37835;53.256;6.456;2023-01-23T04:37:13;2.20;99.90
51765;DHT22;37835;53.256;6.456;2023-01-23T04:39:39;2.20;99.90
51765;DHT22;37835;53.256;6.456;2023-01-23T04:42:04;2.20;99.90
51765;DHT22;37835;53.256;6.456;2023-01-23T04:44:30;2.20;99.90
51765;DHT22;37835;53.256;6.456;2023-01-23T04:46:55;2.20;99.90
51765;DHT22;37835;53.256;6.456;2023-01-23T04:49:21;2.20;99.90
51765;DHT22;37835;53.256;6.456;2023-01-23T04:51:48;2.20;99.90
51765;DHT22;37835;53.256;6.456;2023-01-23T04:54:14;2.20;99.90
51765;DHT22;37835;53.256;6.456;2023-01-23T04:56:40;2.20;99.90
51765;DHT22;37835;53.256;6.456;2023-01-23T04:59:05;2.20;99.90
51765;DHT22;37835;53.256;6.456;2023-01-23T05:01:31;2.20;99.90
51765;DHT22;37835;53.256;6.456;2023-01-23T05:03:57;2.20;99.90
51765;DHT22;37835;53.256;6.456;2023-01-23T05:06:22;2.20;99.90
51765;DHT22;37835;53.256;6.456;2023-01-23T05:08:48;2.20;99.90
51765;DHT22;37835;53.256;6.456;2023-01-23T05:11:13;2.20;99.90
51765;DHT22;37835;53.256;6.456;2023-01-23T05:13:39;2.20;99.90
51765;DHT22;37835;53.256;6.456;2023-01-23T05:16:04;2.20;99.90
51765;DHT22;37835;53.256;6.456;2023-01-23T05:18:30;2.20;99.90
51765;DHT22;37835;53.256;6.456;2023-01-23T05:20:55;2.30;99.90
51765;DHT22;37835;53.256;6.456;2023-01-23T05:23:21;2.30;99.90
51765;DHT22;37835;53.256;6.456;2023-01-23T05:25:46;2.20;99.90
51765;DHT22;37835;53.256;6.456;2023-01-23T05:28:12;2.20;99.90
51765;DHT22;37835;53.256;6.456;2023-01-23T05:30:37;2.20;99.90
51765;DHT22;37835;53.256;6.456;2023-01-23T05:33:03;2.20;99.90
51765;DHT22;37835;53.256;6.456;2023-01-23T05:35:28;2.30;99.90
51765;DHT22;37835;53.256;6.456;2023-01-23T05:37:54;2.20;99.90
51765;DHT22;37835;53.256;6.456;2023-01-23T05:40:19;2.30;99.90
51765;DHT22;37835;53.256;6.456;2023-01-23T05:42:45;2.20;99.90
51765;DHT22;37835;53.256;6.456;2023-01-23T05:45:11;2.20;99.90
51765;DHT22;37835;53.256;6.456;2023-01-23T05:47:36;2.20;99.90
51765;DHT22;37835;53.256;6.456;2023-01-23T05:50:02;2.30;99.90
51765;DHT22;37835;53.256;6.456;2023-01-23T05:52:28;2.20;99.90
51765;DHT22;37835;53.256;6.456;2023-01-23T05:54:53;2.20;99.90
51765;DHT22;37835;53.256;6.456;2023-01-23T05:57:19;2.20;99.90
51765;DHT22;37835;53.256;6.456;2023-01-23T05:59:44;2.20;99.90
51765;DHT22;37835;53.256;6.456;2023-01-23T06:02:10;2.20;99.90
51765;DHT22;37835;53.256;6.456;2023-01-23T06:04:36;2.20;99.90
51765;DHT22;37835;53.256;6.456;2023-01-23T06:07:01;2.20;99.90
51765;DHT22;37835;53.256;6.456;2023-01-23T06:09:27;2.30;99.90
51765;DHT22;37835;53.256;6.456;2023-01-23T06:11:53;2.20;99.90
51765;DHT22;37835;53.256;6.456;2023-01-23T06:14:18;2.20;99.90
51765;DHT22;37835;53.256;6.456;2023-01-23T06:16:44;2.30;99.90
51765;DHT22;37835;53.256;6.456;2023-01-23T06:19:09;2.20;99.90
51765;DHT22;37835;53.256;6.456;2023-01-23T06:21:35;2.20;99.90
51765;DHT22;37835;53.256;6.456;2023-01-23T06:24:00;2.20;99.90
51765;DHT22;37835;53.256;6.456;2023-01-23T06:26:26;2.20;99.90
51765;DHT22;37835;53.256;6.456;2023-01-23T06:28:52;2.30;99.90
51765;DHT22;37835;53.256;6.456;2023-01-23T06:31:17;2.20;99.90
51765;DHT22;37835;53.256;6.456;2023-01-23T06:33:43;2.20;99.90
51765;DHT22;37835;53.256;6.456;2023-01-23T06:36:08;2.30;99.90
51765;DHT22;37835;53.256;6.456;2023-01-23T06:38:34;2.20;99.90
51765;DHT22;37835;53.256;6.456;2023-01-23T06:40:59;2.20;99.90
51765;DHT22;37835;53.256;6.456;2023-01-23T06:43:25;2.20;99.90
51765;DHT22;37835;53.256;6.456;2023-01-23T06:45:50;2.20;99.90
51765;DHT22;37835;53.256;6.456;2023-01-23T06:48:16;2.20;99.90
51765;DHT22;37835;53.256;6.456;2023-01-23T06:50:42;2.20;99.90
51765;DHT22;37835;53.256;6.456;2023-01-23T06:53:08;2.20;99.90
51765;DHT22;37835;53.256;6.456;2023-01-23T06:55:33;2.20;99.90
51765;DHT22;37835;53.256;6.456;2023-01-23T06:57:59;2.20;99.90
51765;DHT22;37835;53.256;6.456;2023-01-23T07:00:25;2.20;99.90
51765;DHT22;37835;53.256;6.456;2023-01-23T07:02:51;2.20;99.90
51765;DHT22;37835;53.256;6.456;2023-01-23T07:05:17;2.20;99.90
51765;DHT22;37835;53.256;6.456;2023-01-23T07:07:43;2.20;99.90
51765;DHT22;37835;53.256;6.456;2023-01-23T07:10:09;2.20;99.90
51765;DHT22;37835;53.256;6.456;2023-01-23T07:12:34;2.20;99.90
51765;DHT22;37835;53.256;6.456;2023-01-23T07:15:00;2.20;99.90
51765;DHT22;37835;53.256;6.456;2023-01-23T07:17:26;2.20;99.90
51765;DHT22;37835;53.256;6.456;2023-01-23T07:19:51;2.20;99.90
51765;DHT22;37835;53.256;6.456;2023-01-23T07:22:17;2.20;99.90
51765;DHT22;37835;53.256;6.456;2023-01-23T07:24:43;2.20;99.90
51765;DHT22;37835;53.256;6.456;2023-01-23T07:27:08;2.20;99.90
51765;DHT22;37835;53.256;6.456;2023-01-23T07:29:34;2.20;99.90
51765;DHT22;37835;53.256;6.456;2023-01-23T07:31:59;2.20;99.90
51765;DHT22;37835;53.256;6.456;2023-01-23T07:34:25;2.20;99.90
51765;DHT22;37835;53.256;6.456;2023-01-23T07:36:51;2.20;99.90
51765;DHT22;37835;53.256;6.456;2023-01-23T07:39:16;2.20;99.90
51765;DHT22;37835;53.256;6.456;2023-01-23T07:41:42;2.20;99.90
51765;DHT22;37835;53.256;6.456;2023-01-23T07:44:08;2.20;99.90
51765;DHT22;37835;53.256;6.456;2023-01-23T07:46:38;2.20;99.90
51765;DHT22;37835;53.256;6.456;2023-01-23T07:49:03;2.20;99.90
51765;DHT22;37835;53.256;6.456;2023-01-23T07:51:29;2.20;99.90
51765;DHT22;37835;53.256;6.456;2023-01-23T07:53:54;2.20;99.90
51765;DHT22;37835;53.256;6.456;2023-01-23T07:56:20;2.20;99.90
51765;DHT22;37835;53.256;6.456;2023-01-23T07:58:48;2.20;99.90
51765;DHT22;37835;53.256;6.456;2023-01-23T08:01:13;2.20;99.90
51765;DHT22;37835;53.256;6.456;2023-01-23T08:03:39;2.20;99.90
51765;DHT22;37835;53.256;6.456;2023-01-23T08:06:04;2.20;99.90
51765;DHT22;37835;53.256;6.456;2023-01-23T08:08:30;2.20;99.90
51765;DHT22;37835;53.256;6.456;2023-01-23T08:10:55;2.20;99.90
51765;DHT22;37835;53.256;6.456;2023-01-23T08:13:21;2.20;99.90
51765;DHT22;37835;53.256;6.456;2023-01-23T08:15:46;2.20;99.90
51765;DHT22;37835;53.256;6.456;2023-01-23T08:18:12;2.20;99.90
51765;DHT22;37835;53.256;6.456;2023-01-23T08:20:37;2.20;99.90
51765;DHT22;37835;53.256;6.456;2023-01-23T08:23:03;2.20;99.90
51765;DHT22;37835;53.256;6.456;2023-01-23T08:25:29;2.20;99.90
51765;DHT22;37835;53.256;6.456;2023-01-23T08:27:55;2.20;99.90
51765;DHT22;37835;53.256;6.456;2023-01-23T08:30:20;2.20;99.90
51765;DHT22;37835;53.256;6.456;2023-01-23T08:32:46;2.20;99.90
51765;DHT22;37835;53.256;6.456;2023-01-23T08:35:12;2.20;99.90
51765;DHT22;37835;53.256;6.456;2023-01-23T08:37:37;2.20;99.90
51765;DHT22;37835;53.256;6.456;2023-01-23T08:40:03;2.30;99.90
51765;DHT22;37835;53.256;6.456;2023-01-23T08:42:28;2.30;99.90
51765;DHT22;37835;53.256;6.456;2023-01-23T08:44:54;2.30;99.90
51765;DHT22;37835;53.256;6.456;2023-01-23T08:47:20;2.30;99.90
51765;DHT22;37835;53.256;6.456;2023-01-23T08:49:45;2.30;99.90
51765;DHT22;37835;53.256;6.456;2023-01-23T08:52:11;2.30;99.90
51765;DHT22;37835;53.256;6.456;2023-01-23T08:54:36;2.30;99.90
51765;DHT22;37835;53.256;6.456;2023-01-23T08:57:02;2.30;99.90
51765;DHT22;37835;53.256;6.456;2023-01-23T08:59:27;2.40;99.90
51765;DHT22;37835;53.256;6.456;2023-01-23T09:01:53;2.40;99.90
51765;DHT22;37835;53.256;6.456;2023-01-23T09:04:18;2.40;99.90
51765;DHT22;37835;53.256;6.456;2023-01-23T09:06:44;2.40;99.90
51765;DHT22;37835;53.256;6.456;2023-01-23T09:09:09;2.40;99.90
51765;DHT22;37835;53.256;6.456;2023-01-23T09:11:35;2.40;99.90
51765;DHT22;37835;53.256;6.456;2023-01-23T09:14:00;2.50;99.90
51765;DHT22;37835;53.256;6.456;2023-01-23T09:16:26;2.50;99.90
51765;DHT22;37835;53.256;6.456;2023-01-23T09:18:53;2.50;99.90
51765;DHT22;37835;53.256;6.456;2023-01-23T09:21:18;2.40;99.90
51765;DHT22;37835;53.256;6.456;2023-01-23T09:23:44;2.50;99.90
51765;DHT22;37835;53.256;6.456;2023-01-23T09:26:10;2.50;99.90
51765;DHT22;37835;53.256;6.456;2023-01-23T09:28:36;2.50;99.90
51765;DHT22;37835;53.256;6.456;2023-01-23T09:31:03;2.50;99.90
51765;DHT22;37835;53.256;6.456;2023-01-23T09:33:29;2.60;99.90
51765;DHT22;37835;53.256;6.456;2023-01-23T09:35:54;2.60;99.90
51765;DHT22;37835;53.256;6.456;2023-01-23T09:38:20;2.60;99.90
51765;DHT22;37835;53.256;6.456;2023-01-23T09:40:49;2.60;99.90
51765;DHT22;37835;53.256;6.456;2023-01-23T09:43:16;2.60;99.90
51765;DHT22;37835;53.256;6.456;2023-01-23T09:45:46;2.60;99.90
51765;DHT22;37835;53.256;6.456;2023-01-23T09:50:42;2.60;99.90
51765;DHT22;37835;53.256;6.456;2023-01-23T09:53:13;2.70;99.90
51765;DHT22;37835;53.256;6.456;2023-01-23T09:55:46;2.70;99.90
51765;DHT22;37835;53.256;6.456;2023-01-23T09:58:14;2.70;99.90
51765;DHT22;37835;53.256;6.456;2023-01-23T10:00:42;2.70;99.90
51765;DHT22;37835;53.256;6.456;2023-01-23T10:03:11;2.70;99.90
51765;DHT22;37835;53.256;6.456;2023-01-23T10:05:52;2.70;99.90
51765;DHT22;37835;53.256;6.456;2023-01-23T10:08:26;2.80;99.90
51765;DHT22;37835;53.256;6.456;2023-01-23T10:11:00;2.80;99.90
51765;DHT22;37835;53.256;6.456;2023-01-23T10:19:07;2.80;99.90
51765;DHT22;37835;53.256;6.456;2023-01-23T10:21:40;2.90;99.90
51765;DHT22;37835;53.256;6.456;2023-01-23T10:26:51;2.90;99.90
51765;DHT22;37835;53.256;6.456;2023-01-23T10:29:33;2.90;99.90
51765;DHT22;37835;53.256;6.456;2023-01-23T10:32:00;2.90;99.90
51765;DHT22;37835;53.256;6.456;2023-01-23T10:35:02;2.90;99.90
51765;DHT22;37835;53.256;6.456;2023-01-23T10:37:32;3.00;99.90
51765;DHT22;37835;53.256;6.456;2023-01-23T10:42:32;3.00;99.90
51765;DHT22;37835;53.256;6.456;2023-01-23T10:44:58;3.00;99.90
51765;DHT22;37835;53.256;6.456;2023-01-23T10:47:40;3.10;99.90
51765;DHT22;37835;53.256;6.456;2023-01-23T10:50:07;3.10;99.90
51765;DHT22;37835;53.256;6.456;2023-01-23T10:55:02;3.10;99.90
51765;DHT22;37835;53.256;6.456;2023-01-23T10:57:29;3.20;99.90
51765;DHT22;37835;53.256;6.456;2023-01-23T10:59:59;3.20;99.90
51765;DHT22;37835;53.256;6.456;2023-01-23T11:02:32;3.20;99.90
51765;DHT22;37835;53.256;6.456;2023-01-23T11:04:58;3.30;99.90
51765;DHT22;37835;53.256;6.456;2023-01-23T11:07:25;3.30;99.90
51765;DHT22;37835;53.256;6.456;2023-01-23T11:09:52;3.30;99.90
51765;DHT22;37835;53.256;6.456;2023-01-23T11:12:22;3.30;99.90
51765;DHT22;37835;53.256;6.456;2023-01-23T11:14:48;3.40;99.90
51765;DHT22;37835;53.256;6.456;2023-01-23T11:17:15;3.40;99.90
51765;DHT22;37835;53.256;6.456;2023-01-23T11:19:41;3.40;99.90
51765;DHT22;37835;53.256;6.456;2023-01-23T11:33:32;3.50;99.90
51765;DHT22;37835;53.256;6.456;2023-01-23T11:36:12;4.80;99.90
51765;DHT22;37835;53.256;6.456;2023-01-23T11:38:43;3.50;99.90
51765;DHT22;37835;53.256;6.456;2023-01-23T11:41:09;3.50;99.90
51765;DHT22;37835;53.256;6.456;2023-01-23T11:43:36;3.50;99.90
51765;DHT22;37835;53.256;6.456;2023-01-23T11:53:34;3.60;99.90
51765;DHT22;37835;53.256;6.456;2023-01-23T11:56:05;3.60;99.90
51765;DHT22;37835;53.256;6.456;2023-01-23T12:01:25;3.60;99.90
51765;DHT22;37835;53.256;6.456;2023-01-23T12:08:55;3.70;99.90
51765;DHT22;37835;53.256;6.456;2023-01-23T12:11:23;3.70;99.90
51765;DHT22;37835;53.256;6.456;2023-01-23T12:17:09;3.70;99.90
51765;DHT22;37835;53.256;6.456;2023-01-23T12:19:26;3.70;99.90
51765;DHT22;37835;53.256;6.456;2023-01-23T12:22:13;4.00;99.90
51765;DHT22;37835;53.256;6.456;2023-01-23T12:27:22;3.80;99.90
51765;DHT22;37835;53.256;6.456;2023-01-23T12:39:59;3.80;99.90
51765;DHT22;37835;53.256;6.456;2023-01-23T12:42:27;3.80;99.90
51765;DHT22;37835;53.256;6.456;2023-01-23T12:44:58;3.90;99.90
51765;DHT22;37835;53.256;6.456;2023-01-23T12:47:33;3.90;99.90
51765;DHT22;37835;53.256;6.456;2023-01-23T12:50:04;3.90;99.90
51765;DHT22;37835;53.256;6.456;2023-01-23T12:55:10;3.90;99.90
51765;DHT22;37835;53.256;6.456;2023-01-23T12:57:37;3.90;99.90
51765;DHT22;37835;53.256;6.456;2023-01-23T13:02:44;3.90;99.90
51765;DHT22;37835;53.256;6.456;2023-01-23T13:05:46;3.80;99.90
51765;DHT22;37835;53.256;6.456;2023-01-23T13:11:00;3.90;99.90
51765;DHT22;37835;53.256;6.456;2023-01-23T13:13:45;3.80;99.90
51765;DHT22;37835;53.256;6.456;2023-01-23T13:16:14;3.80;99.90
51765;DHT22;37835;53.256;6.456;2023-01-23T13:18:50;3.80;99.90
51765;DHT22;37835;53.256;6.456;2023-01-23T13:21:34;3.80;99.90
51765;DHT22;37835;53.256;6.456;2023-01-23T13:24:23;3.80;99.90
51765;DHT22;37835;53.256;6.456;2023-01-23T13:46:29;3.60;99.90
51765;DHT22;37835;53.256;6.456;2023-01-23T13:49:06;3.70;99.90
51765;DHT22;37835;53.256;6.456;2023-01-23T13:51:51;3.60;99.90
51765;DHT22;37835;53.256;6.456;2023-01-23T13:54:20;3.60;99.90
51765;DHT22;37835;53.256;6.456;2023-01-23T13:57:07;3.60;99.90
51765;DHT22;37835;53.256;6.456;2023-01-23T13:59:34;3.60;99.90
51765;DHT22;37835;53.256;6.456;2023-01-23T14:05:23;3.60;99.90
51765;DHT22;37835;53.256;6.456;2023-01-23T14:07:42;3.60;99.90
51765;DHT22;37835;53.256;6.456;2023-01-23T14:13:14;3.60;99.90
51765;DHT22;37835;53.256;6.456;2023-01-23T14:15:44;3.60;99.90
51765;DHT22;37835;53.256;6.456;2023-01-23T14:18:33;3.60;99.90
51765;DHT22;37835;53.256;6.456;2023-01-23T14:21:03;3.60;99.90
51765;DHT22;37835;53.256;6.456;2023-01-23T14:23:32;2.40;99.90
51765;DHT22;37835;53.256;6.456;2023-01-23T14:25:58;3.60;99.90
51765;DHT22;37835;53.256;6.456;2023-01-23T14:28:24;3.60;99.90
51765;DHT22;37835;53.256;6.456;2023-01-23T14:30:54;3.60;99.90
51765;DHT22;37835;53.256;6.456;2023-01-23T14:33:19;3.50;99.90
51765;DHT22;37835;53.256;6.456;2023-01-23T14:35:45;3.50;99.90
51765;DHT22;37835;53.256;6.456;2023-01-23T14:38:13;3.50;99.90
51765;DHT22;37835;53.256;6.456;2023-01-23T14:40:40;3.50;99.90
51765;DHT22;37835;53.256;6.456;2023-01-23T14:43:07;3.50;99.90
51765;DHT22;37835;53.256;6.456;2023-01-23T14:45:33;3.50;99.90
51765;DHT22;37835;53.256;6.456;2023-01-23T14:48:00;3.50;99.90
51765;DHT22;37835;53.256;6.456;2023-01-23T14:50:26;3.50;99.90
51765;DHT22;37835;53.256;6.456;2023-01-23T14:53:00;3.50;99.90
51765;DHT22;37835;53.256;6.456;2023-01-23T14:55:27;3.50;99.90
51765;DHT22;37835;53.256;6.456;2023-01-23T14:57:53;3.50;99.90
51765;DHT22;37835;53.256;6.456;2023-01-23T15:00:20;3.50;99.90
51765;DHT22;37835;53.256;6.456;2023-01-23T15:02:46;3.50;99.90
51765;DHT22;37835;53.256;6.456;2023-01-23T15:07:43;3.40;99.90
51765;DHT22;37835;53.256;6.456;2023-01-23T15:10:18;3.40;99.90
51765;DHT22;37835;53.256;6.456;2023-01-23T15:12:52;3.40;99.90
51765;DHT22;37835;53.256;6.456;2023-01-23T15:15:19;3.40;99.90
51765;DHT22;37835;53.256;6.456;2023-01-23T15:17:45;3.30;99.90
51765;DHT22;37835;53.256;6.456;2023-01-23T15:20:31;3.40;99.90
51765;DHT22;37835;53.256;6.456;2023-01-23T15:23:12;3.30;99.90
51765;DHT22;37835;53.256;6.456;2023-01-23T15:25:38;3.30;99.90
51765;DHT22;37835;53.256;6.456;2023-01-23T15:30:48;3.30;99.90
51765;DHT22;37835;53.256;6.456;2023-01-23T15:33:27;3.30;99.90
51765;DHT22;37835;53.256;6.456;2023-01-23T15:36:00;3.30;99.90
51765;DHT22;37835;53.256;6.456;2023-01-23T15:38:26;3.30;99.90
51765;DHT22;37835;53.256;6.456;2023-01-23T15:40:52;3.30;99.90
51765;DHT22;37835;53.256;6.456;2023-01-23T15:43:17;3.30;99.90
51765;DHT22;37835;53.256;6.456;2023-01-23T15:45:43;3.30;99.90
51765;DHT22;37835;53.256;6.456;2023-01-23T15:48:09;3.20;99.90
51765;DHT22;37835;53.256;6.456;2023-01-23T15:50:34;3.20;99.90
51765;DHT22;37835;53.256;6.456;2023-01-23T15:53:00;3.20;99.90
51765;DHT22;37835;53.256;6.456;2023-01-23T15:55:26;3.20;99.90
51765;DHT22;37835;53.256;6.456;2023-01-23T15:57:52;3.20;99.90
51765;DHT22;37835;53.256;6.456;2023-01-23T16:00:19;3.20;99.90
51765;DHT22;37835;53.256;6.456;2023-01-23T16:02:45;3.20;99.90
51765;DHT22;37835;53.256;6.456;2023-01-23T16:05:11;3.20;99.90
51765;DHT22;37835;53.256;6.456;2023-01-23T16:07:37;3.20;99.90
51765;DHT22;37835;53.256;6.456;2023-01-23T16:10:14;3.20;99.90
51765;DHT22;37835;53.256;6.456;2023-01-23T16:12:40;3.20;99.90
51765;DHT22;37835;53.256;6.456;2023-01-23T16:15:16;3.10;99.90
51765;DHT22;37835;53.256;6.456;2023-01-23T16:17:42;3.10;99.90
51765;DHT22;37835;53.256;6.456;2023-01-23T16:20:12;3.10;99.90
51765;DHT22;37835;53.256;6.456;2023-01-23T16:22:38;3.10;99.90
51765;DHT22;37835;53.256;6.456;2023-01-23T16:25:03;3.10;99.90
51765;DHT22;37835;53.256;6.456;2023-01-23T16:27:29;3.10;99.90
51765;DHT22;37835;53.256;6.456;2023-01-23T16:29:55;3.10;99.90
51765;DHT22;37835;53.256;6.456;2023-01-23T16:32:20;3.10;99.90
51765;DHT22;37835;53.256;6.456;2023-01-23T16:34:46;3.00;99.90
51765;DHT22;37835;53.256;6.456;2023-01-23T16:37:13;3.00;99.90
51765;DHT22;37835;53.256;6.456;2023-01-23T16:39:40;3.00;99.90
51765;DHT22;37835;53.256;6.456;2023-01-23T16:42:05;3.00;99.90
51765;DHT22;37835;53.256;6.456;2023-01-23T16:44:31;3.00;99.90
51765;DHT22;37835;53.256;6.456;2023-01-23T16:46:56;3.00;99.90
51765;DHT22;37835;53.256;6.456;2023-01-23T16:49:23;3.00;99.90
51765;DHT22;37835;53.256;6.456;2023-01-23T16:51:50;3.00;99.90
51765;DHT22;37835;53.256;6.456;2023-01-23T16:54:19;3.00;99.90
51765;DHT22;37835;53.256;6.456;2023-01-23T16:56:45;2.90;99.90
51765;DHT22;37835;53.256;6.456;2023-01-23T16:59:13;2.90;99.90
51765;DHT22;37835;53.256;6.456;2023-01-23T17:01:40;2.90;99.90
51765;DHT22;37835;53.256;6.456;2023-01-23T17:04:07;2.90;99.90
51765;DHT22;37835;53.256;6.456;2023-01-23T17:06:33;2.90;99.90
51765;DHT22;37835;53.256;6.456;2023-01-23T17:08:59;2.90;99.90
51765;DHT22;37835;53.256;6.456;2023-01-23T17:11:28;2.90;99.90
51765;DHT22;37835;53.256;6.456;2023-01-23T17:14:00;2.90;99.90
51765;DHT22;37835;53.256;6.456;2023-01-23T17:16:26;2.90;99.90
51765;DHT22;37835;53.256;6.456;2023-01-23T17:18:52;2.90;99.90
51765;DHT22;37835;53.256;6.456;2023-01-23T17:21:19;2.90;99.90
51765;DHT22;37835;53.256;6.456;2023-01-23T17:23:45;2.80;99.90
51765;DHT22;37835;53.256;6.456;2023-01-23T17:26:13;2.80;99.90
51765;DHT22;37835;53.256;6.456;2023-01-23T17:28:39;2.80;99.90
51765;DHT22;37835;53.256;6.456;2023-01-23T17:31:05;2.80;99.90
51765;DHT22;37835;53.256;6.456;2023-01-23T17:33:30;2.80;99.90
51765;DHT22;37835;53.256;6.456;2023-01-23T17:35:56;2.80;99.90